Time;durP1;ratioP1;P1;durP2;ratioP2;P2;SDS_P1;SDS_P2;PMS_P1;PMS_P2;Temp;Humidity;BMP_temperature;BMP_pressure;BME280_temperature;BME280_humidity;BME280_pressure;Samples;Min_cycle;Max_cycle;Signal;HPM_P1;HPM_P2
2021/10/18 00:03:02;;;;;;;27.45;11.18;;;;;;;;;;10389026;28;20316;-69
2021/10/18 00:08:07;;;;;;;19.77;8.30;;;;;;;;;;10396933;28;20071;-68
2021/10/18 00:13:10;;;;;;;25.67;10.32;;;;;;;;;;10390773;28;20069;-68
2021/10/18 00:18:12;;;;;;;24.05;10.93;;;;;;;;;;10388956;28;20067;-68
2021/10/18 00:23:17;;;;;;;22.67;10.40;;;;;;;;;;10385538;28;20037;-69
2021/10/18 00:28:20;;;;;;;25.50;9.85;;;;;;;;;;10390083;28;20541;-68
2021/10/18 00:33:23;;;;;;;22.17;9.82;;;;;;;;;;10387734;28;20514;-68
2021/10/18 00:38:27;;;;;;;20.55;7.72;;;;;;;;;;10386297;28;20046;-68
2021/10/18 00:43:30;;;;;;;22.92;9.40;;;;;;;;;;10383564;28;20454;-69
2021/10/18 00:48:33;;;;;;;25.67;10.48;;;;;;;;;;10377360;28;20049;-68
2021/10/18 00:53:37;;;;;;;29.85;11.50;;;;;;;;;;10389122;28;20560;-69
2021/10/18 00:58:40;;;;;;;29.05;10.82;;;;;;;;;;10393855;28;20103;-67
2021/10/18 01:03:43;;;;;;;29.40;11.00;;;;;;;;;;10386324;28;20041;-68
2021/10/18 01:08:47;;;;;;;28.85;11.48;;;;;;;;;;10391268;28;20061;-69
2021/10/18 01:13:55;;;;;;;32.55;11.77;;;;;;;;;;10389462;28;20061;-67
2021/10/18 01:18:58;;;;;;;26.23;10.82;;;;;;;;;;10396410;28;20136;-68
2021/10/18 01:24:02;;;;;;;17.27;6.57;;;;;;;;;;10396065;28;20531;-68
2021/10/18 01:29:06;;;;;;;26.23;10.30;;;;;;;;;;10397342;28;20172;-66
2021/10/18 01:34:09;;;;;;;10.75;4.10;;;;;;;;;;10392794;28;20050;-68
2021/10/18 01:39:13;;;;;;;23.33;8.75;;;;;;;;;;10395490;28;20046;-66
2021/10/18 01:44:16;;;;;;;25.67;9.80;;;;;;;;;;10389614;28;20069;-66
2021/10/18 01:49:19;;;;;;;20.88;8.50;;;;;;;;;;10391185;28;20042;-67
2021/10/18 01:54:23;;;;;;;23.75;8.82;;;;;;;;;;10394708;28;20051;-68
2021/10/18 01:59:26;;;;;;;;;;;;;;;;;;10387079;28;20132;-67
2021/10/18 02:04:29;;;;;;;27.25;10.07;;;;;;;;;;10392643;28;19921;-69
2021/10/18 02:09:33;;;;;;;26.13;11.20;;;;;;;;;;10401810;28;20065;-67
2021/10/18 02:14:36;;;;;;;24.30;8.52;;;;;;;;;;10394018;28;20122;-68
2021/10/18 02:19:38;;;;;;;27.98;9.07;;;;;;;;;;10386768;28;20069;-67
2021/10/18 02:24:43;;;;;;;27.30;9.95;;;;;;;;;;10388083;28;20574;-69
2021/10/18 02:29:45;;;;;;;;;;;;;;;;;;10387807;28;20473;-68
2021/10/18 02:34:48;;;;;;;25.20;9.32;;;;;;;;;;10395522;28;20032;-68
2021/10/18 02:39:52;;;;;;;26.02;9.25;;;;;;;;;;10394910;28;20066;-67
2021/10/18 02:44:54;;;;;;;;;;;;;;;;;;10392488;28;20117;-68
2021/10/18 02:49:57;;;;;;;23.75;9.10;;;;;;;;;;10387544;28;20365;-68
2021/10/18 02:55:01;;;;;;;23.27;9.27;;;;;;;;;;10390149;28;20453;-68
2021/10/18 03:00:04;;;;;;;;;;;;;;;;;;10385000;28;20069;-68
2021/10/18 03:05:08;;;;;;;28.63;9.43;;;;;;;;;;10384886;28;19921;-68
2021/10/18 03:10:12;;;;;;;25.20;9.82;;;;;;;;;;10389935;28;20041;-68
2021/10/18 03:15:15;;;;;;;29.88;10.38;;;;;;;;;;10389442;28;20041;-68
2021/10/18 03:20:17;;;;;;;27.90;9.93;;;;;;;;;;10395947;28;20065;-69
2021/10/18 03:25:22;;;;;;;20.67;7.82;;;;;;;;;;10389506;28;20154;-67
2021/10/18 03:30:24;;;;;;;;;;;;;;;;;;10396614;28;20424;-68
2021/10/18 03:35:27;;;;;;;23.75;9.32;;;;;;;;;;10390948;28;19929;-68
2021/10/18 03:40:31;;;;;;;32.25;11.02;;;;;;;;;;10390231;28;20049;-67
2021/10/18 03:45:34;;;;;;;29.13;11.00;;;;;;;;;;10391362;28;20510;-68
2021/10/18 03:50:37;;;;;;;32.58;10.23;;;;;;;;;;10385130;28;20105;-69
2021/10/18 03:55:41;;;;;;;28.60;10.55;;;;;;;;;;10389321;28;20124;-68
2021/10/18 04:00:43;;;;;;;27.75;10.65;;;;;;;;;;10384536;28;20037;-69
2021/10/18 04:05:46;;;;;;;29.15;10.98;;;;;;;;;;10389064;28;20030;-67
2021/10/18 04:10:50;;;;;;;30.95;10.57;;;;;;;;;;10388224;28;20106;-67
2021/10/18 04:15:53;;;;;;;27.60;10.80;;;;;;;;;;10387584;28;20042;-67
2021/10/18 04:20:56;;;;;;;30.27;10.65;;;;;;;;;;10387249;28;20452;-69
2021/10/18 04:26:01;;;;;;;32.55;11.73;;;;;;;;;;10386335;28;20061;-68
2021/10/18 04:31:03;;;;;;;28.48;10.05;;;;;;;;;;10385850;28;20038;-69
2021/10/18 04:36:06;;;;;;;26.52;9.73;;;;;;;;;;10379177;28;20046;-68
2021/10/18 04:41:10;;;;;;;29.33;10.57;;;;;;;;;;10385510;28;20159;-66
2021/10/18 04:46:13;;;;;;;32.30;10.88;;;;;;;;;;10381577;28;20046;-68
2021/10/18 04:51:16;;;;;;;31.25;10.15;;;;;;;;;;10389386;28;20494;-66
2021/10/18 04:56:20;;;;;;;28.48;10.68;;;;;;;;;;10390524;28;20061;-67
2021/10/18 05:01:23;;;;;;;;;;;;;;;;;;10389334;28;20529;-68
2021/10/18 05:06:26;;;;;;;33.53;10.70;;;;;;;;;;10393304;28;19929;-67
2021/10/18 05:11:30;;;;;;;29.00;10.73;;;;;;;;;;10396067;28;20104;-68
2021/10/18 05:16:33;;;;;;;30.25;10.50;;;;;;;;;;10393677;28;20144;-67
2021/10/18 05:21:36;;;;;;;36.13;11.97;;;;;;;;;;10393617;28;20052;-68
2021/10/18 05:26:40;;;;;;;31.75;11.13;;;;;;;;;;10389671;28;20658;-70
2021/10/18 05:31:43;;;;;;;34.42;11.15;;;;;;;;;;10390628;28;20030;-68
2021/10/18 05:36:46;;;;;;;30.65;10.75;;;;;;;;;;10383427;28;20120;-68
2021/10/18 05:41:50;;;;;;;35.53;12.02;;;;;;;;;;10393656;28;20045;-67
2021/10/18 05:46:53;;;;;;;33.97;12.32;;;;;;;;;;10394154;28;20504;-64
2021/10/18 05:51:56;;;;;;;54.90;19.15;;;;;;;;;;10392870;28;20529;-67
2021/10/18 05:57:00;;;;;;;37.10;11.75;;;;;;;;;;10399838;28;20046;-69
2021/10/18 06:02:03;;;;;;;36.10;12.52;;;;;;;;;;10397278;28;20041;-69
2021/10/18 06:07:06;;;;;;;30.75;10.88;;;;;;;;;;10401610;28;20105;-68
2021/10/18 06:12:10;;;;;;;31.17;9.85;;;;;;;;;;10400911;28;20084;-68
2021/10/18 06:17:14;;;;;;;36.83;11.77;;;;;;;;;;10398446;28;20037;-70
2021/10/18 06:22:17;;;;;;;32.03;10.25;;;;;;;;;;10394136;28;20083;-68
2021/10/18 06:27:23;;;;;;;34.08;11.55;;;;;;;;;;10387912;28;20133;-69
2021/10/18 06:32:26;;;;;;;30.10;11.32;;;;;;;;;;10399753;28;20873;-68
2021/10/18 06:37:31;;;;;;;33.13;11.02;;;;;;;;;;10396775;28;20050;-68
2021/10/18 06:42:35;;;;;;;29.42;11.10;;;;;;;;;;10397594;28;20645;-67
2021/10/18 06:47:38;;;;;;;;;;;;;;;;;;10397392;28;20120;-67
2021/10/18 06:52:42;;;;;;;23.40;8.02;;;;;;;;;;10389704;28;20019;-66
2021/10/18 06:57:44;;;;;;;;;;;;;;;;;;10397011;28;20048;-67
2021/10/18 07:02:48;;;;;;;30.88;10.45;;;;;;;;;;10396344;28;19956;-67
2021/10/18 07:07:51;;;;;;;29.55;10.07;;;;;;;;;;10387169;28;20112;-67
2021/10/18 07:12:54;;;;;;;32.60;11.57;;;;;;;;;;10395765;28;20046;-68
2021/10/18 07:17:58;;;;;;;30.85;10.30;;;;;;;;;;10393824;28;20633;-68
2021/10/18 07:23:06;;;;;;;;;;;;;;;;;;10394457;28;20099;-70
2021/10/18 07:28:08;;;;;;;28.92;10.13;;;;;;;;;;10396562;28;19920;-68
2021/10/18 07:33:13;;;;;;;30.42;10.10;;;;;;;;;;10384129;28;20105;-67
2021/10/18 07:38:15;;;;;;;;;;;;;;;;;;10394842;28;20120;-68
2021/10/18 07:43:18;;;;;;;33.55;10.60;;;;;;;;;;10390230;28;19959;-71
2021/10/18 07:48:23;;;;;;;29.38;9.32;;;;;;;;;;10389282;28;20497;-68
2021/10/18 07:53:26;;;;;;;33.55;10.60;;;;;;;;;;10391113;28;20451;-68
2021/10/18 07:58:29;;;;;;;32.58;11.05;;;;;;;;;;10397874;28;20041;-69
2021/10/18 08:03:33;;;;;;;32.67;11.15;;;;;;;;;;10392028;28;20045;-69
2021/10/18 08:08:43;;;;;;;27.77;10.52;;;;;;;;;;10390944;28;20136;-68
2021/10/18 08:13:46;;;;;;;32.92;11.13;;;;;;;;;;10397168;28;20490;-68
2021/10/18 08:18:52;;;;;;;40.83;13.80;;;;;;;;;;10387483;28;20065;-70
2021/10/18 08:23:55;;;;;;;33.25;11.35;;;;;;;;;;10387636;28;20042;-69
2021/10/18 08:28:58;;;;;;;37.38;12.68;;;;;;;;;;10382893;28;20122;-70
2021/10/18 08:34:02;;;;;;;36.67;12.18;;;;;;;;;;10385698;28;20041;-70
2021/10/18 08:44:25;;;;;;;38.80;13.48;;;;;;;;;;10384865;28;20038;-69
2021/10/18 08:49:30;;;;;;;37.67;13.85;;;;;;;;;;10381525;28;20116;-69
2021/10/18 08:54:33;;;;;;;36.53;13.57;;;;;;;;;;10388329;28;20044;-68
2021/10/18 08:59:36;;;;;;;40.30;12.55;;;;;;;;;;10389055;28;20045;-71
2021/10/18 09:04:40;;;;;;;41.40;13.90;;;;;;;;;;10385031;28;20456;-70
2021/10/18 09:09:46;;;;;;;35.45;12.63;;;;;;;;;;10384948;28;20120;-69
2021/10/18 09:14:49;;;;;;;36.97;12.50;;;;;;;;;;10390131;28;20490;-69
2021/10/18 09:19:53;;;;;;;36.85;13.13;;;;;;;;;;10390416;28;20042;-69
2021/10/18 09:24:56;;;;;;;36.42;13.02;;;;;;;;;;10384525;28;20353;-68
2021/10/18 09:30:00;;;;;;;39.27;13.87;;;;;;;;;;10388349;28;20041;-69
2021/10/18 09:35:09;;;;;;;40.10;13.97;;;;;;;;;;10392330;28;20052;-68
2021/10/18 09:40:29;;;;;;;37.67;12.55;;;;;;;;;;10394313;28;20049;-70
2021/10/18 09:45:33;;;;;;;36.80;13.45;;;;;;;;;;10390989;28;20041;-69
2021/10/18 10:55:35;;;;;;;37.00;14.50;;;;;;;;;;10390888;28;20113;-69
2021/10/18 11:00:39;;;;;;;37.28;14.48;;;;;;;;;;10393102;28;20104;-68
2021/10/18 11:05:55;;;;;;;33.97;13.70;;;;;;;;;;10387191;28;20132;-69
2021/10/18 11:11:07;;;;;;;41.53;15.07;;;;;;;;;;10389025;28;20065;-70
2021/10/18 11:16:10;;;;;;;34.90;14.25;;;;;;;;;;10386580;28;20085;-71
2021/10/18 11:21:14;;;;;;;36.63;14.23;;;;;;;;;;10381861;28;20050;-69
2021/10/18 11:26:18;;;;;;;33.00;14.27;;;;;;;;;;10392248;28;20596;-70
2021/10/18 11:31:25;;;;;;;35.83;15.77;;;;;;;;;;10393859;28;20569;-69
2021/10/18 11:36:27;;;;;;;38.08;16.75;;;;;;;;;;10393446;28;20038;-69
2021/10/18 11:41:32;;;;;;;33.45;15.60;;;;;;;;;;10393750;28;20046;-69
2021/10/18 11:46:37;;;;;;;32.78;16.48;;;;;;;;;;10392374;28;20468;-68
2021/10/18 11:51:40;;;;;;;35.10;17.90;;;;;;;;;;10387847;28;20061;-69
2021/10/18 11:56:44;;;;;;;33.35;17.80;;;;;;;;;;10385912;28;20049;-69
2021/10/18 12:01:47;;;;;;;35.17;18.63;;;;;;;;;;10393489;28;20044;-70
2021/10/18 12:06:50;;;;;;;31.70;17.83;;;;;;;;;;10390067;28;20127;-70
2021/10/18 12:11:54;;;;;;;32.88;18.90;;;;;;;;;;10390159;28;20042;-70
2021/10/18 12:16:57;;;;;;;33.70;18.23;;;;;;;;;;10393260;28;20096;-70
2021/10/18 12:22:06;;;;;;;32.33;18.33;;;;;;;;;;10397550;28;20117;-71
2021/10/18 12:27:13;;;;;;;35.22;18.88;;;;;;;;;;10392813;28;20124;-70
2021/10/18 12:32:18;;;;;;;31.90;18.50;;;;;;;;;;10392162;28;20441;-69
2021/10/18 12:37:21;;;;;;;32.53;17.85;;;;;;;;;;10390472;28;20489;-69
2021/10/18 12:42:42;;;;;;;36.28;18.38;;;;;;;;;;10389171;28;20052;-70
2021/10/18 12:47:50;;;;;;;33.20;19.75;;;;;;;;;;10386173;28;20041;-70
2021/10/18 12:52:54;;;;;;;33.00;18.35;;;;;;;;;;10389392;28;20103;-68
2021/10/18 12:57:58;;;;;;;32.63;17.75;;;;;;;;;;10393578;28;20081;-69
2021/10/18 13:03:18;;;;;;;30.77;17.88;;;;;;;;;;10398117;28;20053;-70
2021/10/18 13:08:22;;;;;;;31.25;18.00;;;;;;;;;;10400387;28;20046;-70
2021/10/18 13:13:26;;;;;;;32.90;18.20;;;;;;;;;;10402013;28;20359;-68
2021/10/18 13:18:31;;;;;;;35.45;17.00;;;;;;;;;;10400031;28;20061;-68
2021/10/18 13:23:35;;;;;;;34.42;17.67;;;;;;;;;;10405316;28;20144;-70
2021/10/18 13:28:38;;;;;;;32.15;16.90;;;;;;;;;;10397431;28;20140;-67
2021/10/18 13:33:42;;;;;;;37.03;17.63;;;;;;;;;;10397763;28;20692;-70
2021/10/18 13:38:45;;;;;;;33.42;17.52;;;;;;;;;;10401586;28;20044;-67
2021/10/18 13:43:48;;;;;;;32.40;16.20;;;;;;;;;;10394661;28;20049;-69
2021/10/18 13:48:50;;;;;;;;;;;;;;;;;;10399840;28;20087;-69
2021/10/18 13:53:54;;;;;;;32.57;16.20;;;;;;;;;;10399589;28;19921;-70
2021/10/18 13:58:57;;;;;;;31.13;15.98;;;;;;;;;;10398795;28;20362;-70
2021/10/18 14:04:00;;;;;;;29.60;14.30;;;;;;;;;;10402140;28;20088;-67
2021/10/18 14:09:05;;;;;;;27.20;13.63;;;;;;;;;;10400424;28;20071;-69
2021/10/18 14:14:08;;;;;;;35.72;14.00;;;;;;;;;;10400040;28;20041;-69
2021/10/18 14:19:11;;;;;;;31.70;13.77;;;;;;;;;;10393397;28;20125;-69
2021/10/18 14:24:16;;;;;;;29.63;14.57;;;;;;;;;;10394997;28;20108;-71
2021/10/18 14:29:18;;;;;;;27.83;13.20;;;;;;;;;;10398062;28;20099;-68
2021/10/18 14:34:22;;;;;;;29.73;13.60;;;;;;;;;;10392147;28;20045;-68
2021/10/18 14:39:27;;;;;;;28.75;13.45;;;;;;;;;;10394336;28;20048;-69
2021/10/18 14:44:31;;;;;;;28.00;13.90;;;;;;;;;;10396368;28;20346;-69
2021/10/18 14:49:34;;;;;;;31.48;14.32;;;;;;;;;;10391920;28;20045;-67
2021/10/18 14:54:38;;;;;;;27.33;13.00;;;;;;;;;;10401839;28;20099;-68
2021/10/18 14:59:41;;;;;;;31.73;12.98;;;;;;;;;;10400745;28;20045;-69
2021/10/18 15:04:44;;;;;;;29.40;14.00;;;;;;;;;;10395004;28;20045;-69
2021/10/18 15:09:48;;;;;;;30.90;14.63;;;;;;;;;;10398896;28;20093;-68
2021/10/18 15:14:51;;;;;;;37.97;13.82;;;;;;;;;;10397079;28;20029;-68
2021/10/18 15:19:54;;;;;;;32.53;13.63;;;;;;;;;;10392764;28;20541;-69
2021/10/18 15:24:58;;;;;;;34.70;14.23;;;;;;;;;;10388366;28;20073;-67
2021/10/18 15:30:00;;;;;;;30.55;13.05;;;;;;;;;;10394662;28;20045;-70
2021/10/18 15:35:04;;;;;;;32.33;13.77;;;;;;;;;;10389889;28;20057;-68
2021/10/18 15:40:10;;;;;;;30.52;14.05;;;;;;;;;;10393009;28;20174;-70
2021/10/18 15:45:13;;;;;;;33.08;14.02;;;;;;;;;;10393680;28;20092;-69
2021/10/18 15:50:18;;;;;;;36.30;13.43;;;;;;;;;;10398078;28;20073;-69
2021/10/18 15:55:22;;;;;;;31.85;13.35;;;;;;;;;;10398172;28;20050;-69
2021/10/18 16:00:25;;;;;;;34.70;14.05;;;;;;;;;;10381687;28;20540;-68
2021/10/18 16:05:30;;;;;;;34.33;12.85;;;;;;;;;;10394159;28;20132;-69
2021/10/18 16:10:35;;;;;;;36.42;13.93;;;;;;;;;;10392967;28;20456;-70
2021/10/18 16:15:37;;;;;;;34.10;13.73;;;;;;;;;;10390733;28;20061;-70
2021/10/18 16:20:43;;;;;;;38.80;13.93;;;;;;;;;;10394318;28;20359;-69
2021/10/18 16:25:52;;;;;;;31.90;13.02;;;;;;;;;;10392554;28;20048;-69
2021/10/18 16:30:55;;;;;;;32.75;13.13;;;;;;;;;;10397977;28;20128;-70
2021/10/18 16:35:58;;;;;;;34.00;13.98;;;;;;;;;;10392432;28;20550;-68
2021/10/18 16:41:03;;;;;;;36.03;13.45;;;;;;;;;;10397399;28;20085;-70
2021/10/18 16:46:06;;;;;;;35.13;13.50;;;;;;;;;;10394220;28;20612;-69
2021/10/18 16:51:09;;;;;;;35.60;13.05;;;;;;;;;;10395426;28;20470;-69
2021/10/18 16:56:13;;;;;;;31.13;13.43;;;;;;;;;;10394247;28;20355;-69
2021/10/18 17:01:16;;;;;;;35.92;14.18;;;;;;;;;;10397165;28;20087;-69
2021/10/18 17:06:19;;;;;;;38.37;14.43;;;;;;;;;;10391788;28;20045;-69
2021/10/18 17:11:23;;;;;;;40.10;14.30;;;;;;;;;;10396346;28;20053;-69
2021/10/18 17:16:26;;;;;;;38.55;14.35;;;;;;;;;;10390009;28;20052;-70
2021/10/18 17:21:35;;;;;;;41.33;14.80;;;;;;;;;;10392747;28;20050;-67
2021/10/18 17:26:39;;;;;;;41.85;13.40;;;;;;;;;;10392345;28;20037;-69
2021/10/18 17:31:42;;;;;;;40.88;14.98;;;;;;;;;;10395079;28;20034;-67
2021/10/18 17:36:46;;;;;;;35.27;14.00;;;;;;;;;;10387956;28;20141;-68
2021/10/18 17:41:50;;;;;;;37.30;12.48;;;;;;;;;;10393629;28;20108;-69
2021/10/18 17:46:53;;;;;;;38.83;13.65;;;;;;;;;;10390538;28;20531;-69
2021/10/18 17:51:56;;;;;;;34.55;13.90;;;;;;;;;;10403200;28;20382;-70
2021/10/18 17:57:00;;;;;;;41.78;13.98;;;;;;;;;;10400727;28;20490;-70
2021/10/18 18:02:03;;;;;;;42.88;14.73;;;;;;;;;;10395821;28;20041;-70
2021/10/18 18:07:06;;;;;;;44.17;16.37;;;;;;;;;;10395142;28;20056;-70
2021/10/18 18:12:11;;;;;;;39.88;14.95;;;;;;;;;;10396361;28;20058;-70
2021/10/18 18:17:14;;;;;;;42.95;14.10;;;;;;;;;;10398144;28;20045;-70
2021/10/18 18:22:17;;;;;;;39.33;16.25;;;;;;;;;;10397492;28;20124;-70
2021/10/18 18:27:21;;;;;;;43.90;14.85;;;;;;;;;;10398983;28;20102;-70
2021/10/18 18:32:24;;;;;;;39.85;14.65;;;;;;;;;;10400611;28;20048;-69
2021/10/18 18:37:27;;;;;;;44.75;15.32;;;;;;;;;;10400313;28;20454;-70
2021/10/18 18:42:31;;;;;;;40.33;14.85;;;;;;;;;;10401633;28;20525;-70
2021/10/18 18:47:35;;;;;;;43.67;15.88;;;;;;;;;;10401626;28;20049;-69
2021/10/18 18:52:37;;;;;;;41.35;15.77;;;;;;;;;;10404945;28;20038;-70
2021/10/18 18:57:42;;;;;;;48.97;17.55;;;;;;;;;;10397088;28;20465;-70
2021/10/18 19:02:46;;;;;;;42.92;15.85;;;;;;;;;;10390853;28;20077;-68
2021/10/18 19:07:50;;;;;;;42.58;14.95;;;;;;;;;;10393934;28;20030;-71
2021/10/18 19:12:53;;;;;;;;;;;;;;;;;;10400307;28;20116;-67
2021/10/18 19:17:57;;;;;;;38.38;14.57;;;;;;;;;;10398552;28;19929;-70
2021/10/18 19:23:00;;;;;;;;;;;;;;;;;;10403271;28;20502;-69
2021/10/18 19:28:04;;;;;;;37.45;13.55;;;;;;;;;;10396355;28;19960;-67
2021/10/18 19:33:09;;;;;;;38.83;13.98;;;;;;;;;;10397583;28;20053;-70
2021/10/18 19:38:32;;;;;;;40.13;14.95;;;;;;;;;;10397536;28;20038;-71
2021/10/18 19:43:56;;;;;;;45.45;14.55;;;;;;;;;;10399138;28;20107;-69
2021/10/18 19:49:20;;;;;;;38.97;13.85;;;;;;;;;;10398054;28;20129;-70
2021/10/18 19:54:43;;;;;;;42.22;14.20;;;;;;;;;;10396122;28;20037;-68
2021/10/18 19:59:46;;;;;;;42.77;14.40;;;;;;;;;;10393876;28;20042;-69
2021/10/18 20:04:51;;;;;;;38.38;13.73;;;;;;;;;;10388729;28;20454;-70
2021/10/18 20:09:55;;;;;;;35.30;13.45;;;;;;;;;;10396847;28;20049;-69
2021/10/18 20:14:58;;;;;;;33.85;12.80;;;;;;;;;;10398146;28;20079;-68
2021/10/18 20:20:03;;;;;;;36.60;12.70;;;;;;;;;;10400396;28;20050;-68
2021/10/18 20:25:06;;;;;;;31.90;12.45;;;;;;;;;;10394635;28;20081;-71
2021/10/18 20:30:10;;;;;;;35.65;13.00;;;;;;;;;;10392914;28;20038;-67
2021/10/18 20:35:16;;;;;;;31.90;11.38;;;;;;;;;;10397597;28;20080;-69
2021/10/18 20:40:19;;;;;;;34.08;12.50;;;;;;;;;;10395053;28;20473;-68
2021/10/18 20:45:21;;;;;;;26.08;9.73;;;;;;;;;;10395623;28;20053;-69
2021/10/18 20:50:26;;;;;;;15.70;6.78;;;;;;;;;;10396298;28;20067;-68
2021/10/18 20:55:28;;;;;;;;;;;;;;;;;;10388484;28;20076;-69
2021/10/18 21:00:34;;;;;;;25.90;10.20;;;;;;;;;;10383159;28;19963;-68
2021/10/18 21:05:39;;;;;;;30.65;11.82;;;;;;;;;;10391971;28;20050;-69
2021/10/18 21:10:43;;;;;;;30.20;12.00;;;;;;;;;;10388448;28;20046;-69
2021/10/18 21:15:46;;;;;;;28.80;11.15;;;;;;;;;;10383817;28;20125;-70
2021/10/18 21:20:50;;;;;;;29.08;10.15;;;;;;;;;;10388562;28;20053;-68
2021/10/18 21:25:55;;;;;;;28.58;11.45;;;;;;;;;;10396338;28;20486;-69
2021/10/18 21:30:57;;;;;;;27.85;11.57;;;;;;;;;;10402067;28;20073;-69
2021/10/18 21:36:02;;;;;;;33.97;12.70;;;;;;;;;;10395508;28;20101;-67
2021/10/18 21:41:04;;;;;;;32.45;11.85;;;;;;;;;;10395813;28;20059;-70
2021/10/18 21:46:08;;;;;;;29.63;11.60;;;;;;;;;;10395323;28;20124;-69
2021/10/18 21:51:14;;;;;;;30.02;10.85;;;;;;;;;;10391607;28;20034;-69
2021/10/18 21:56:17;;;;;;;33.08;12.43;;;;;;;;;;10397812;28;20132;-70
2021/10/18 22:01:20;;;;;;;29.05;12.00;;;;;;;;;;10396806;28;20103;-69
2021/10/18 22:06:25;;;;;;;30.10;11.30;;;;;;;;;;10394781;28;20052;-69
2021/10/18 22:11:27;;;;;;;;;;;;;;;;;;10397672;28;20045;-68
2021/10/18 22:16:30;;;;;;;30.00;11.20;;;;;;;;;;10396573;28;19955;-69
2021/10/18 22:21:34;;;;;;;30.23;12.25;;;;;;;;;;10398421;28;20160;-69
2021/10/18 22:26:37;;;;;;;30.27;12.65;;;;;;;;;;10390190;28;20137;-66
2021/10/18 22:31:40;;;;;;;31.58;12.13;;;;;;;;;;10386154;28;20064;-68
2021/10/18 22:36:46;;;;;;;31.23;12.15;;;;;;;;;;10395700;28;20046;-69
2021/10/18 22:41:48;;;;;;;35.13;12.77;;;;;;;;;;10396492;28;20407;-69
2021/10/18 22:46:51;;;;;;;29.45;11.52;;;;;;;;;;10398845;28;20108;-69
2021/10/18 22:51:55;;;;;;;32.30;12.50;;;;;;;;;;10396423;28;20049;-69
2021/10/18 22:56:58;;;;;;;;;;;;;;;;;;10395605;28;20080;-70
2021/10/18 23:02:01;;;;;;;32.50;12.35;;;;;;;;;;10393375;28;19936;-69
2021/10/18 23:07:06;;;;;;;33.80;13.60;;;;;;;;;;10396257;28;20103;-70
2021/10/18 23:12:09;;;;;;;28.55;11.95;;;;;;;;;;10391627;28;20304;-68
2021/10/18 23:17:11;;;;;;;32.65;11.63;;;;;;;;;;10390744;28;20037;-69
2021/10/18 23:22:16;;;;;;;35.22;13.95;;;;;;;;;;10394582;28;20049;-70
2021/10/18 23:27:19;;;;;;;36.17;13.57;;;;;;;;;;10391812;28;20065;-70
2021/10/18 23:32:22;;;;;;;29.77;12.68;;;;;;;;;;10400689;28;20115;-69
2021/10/18 23:37:26;;;;;;;32.63;12.10;;;;;;;;;;10394344;28;20069;-70
2021/10/18 23:42:28;;;;;;;;;;;;;;;;;;10391491;28;20046;-69
2021/10/18 23:47:31;;;;;;;25.05;11.40;;;;;;;;;;10389170;28;20019;-69
2021/10/18 23:52:35;;;;;;;26.80;11.57;;;;;;;;;;10392275;28;20104;-69
2021/10/18 23:57:38;;;;;;;31.08;12.07;;;;;;;;;;10388110;28;20045;-68
